createdAt,value
2018-03-29T00:09:48.174Z,22.40
2018-03-29T00:30:29.103Z,22.40
2018-03-29T00:40:42.301Z,22.40
2018-03-29T00:51:02.291Z,22.50
2018-03-29T01:01:16.801Z,22.50
2018-03-29T01:11:31.539Z,22.50
2018-03-29T01:21:47.265Z,22.40
2018-03-29T01:32:00.066Z,22.50
2018-03-29T01:42:22.929Z,22.40
2018-03-29T01:52:47.383Z,22.50
2018-03-29T02:02:58.881Z,22.50
2018-03-29T02:13:10.504Z,22.60
2018-03-29T02:23:25.164Z,22.70
2018-03-29T02:33:35.019Z,22.70
2018-03-29T02:43:48.456Z,22.70
2018-03-29T02:54:02.172Z,22.80
2018-03-29T03:04:20.708Z,22.90
2018-03-29T03:14:32.067Z,22.80
2018-03-29T03:24:47.968Z,22.90
2018-03-29T03:35:00.036Z,22.90
2018-03-29T03:45:12.584Z,23.00
2018-03-29T03:55:28.272Z,23.00
2018-03-29T04:05:45.418Z,23.10
2018-03-29T04:15:56.125Z,23.10
2018-03-29T04:26:04.384Z,23.20
2018-03-29T04:36:15.812Z,23.30
2018-03-29T05:07:05.254Z,23.60
2018-03-29T05:17:26.418Z,23.80
2018-03-29T05:27:39.932Z,23.80
2018-03-29T05:37:50.366Z,23.80
2018-03-29T05:48:03.906Z,23.90
2018-03-29T05:58:19.460Z,24.00
2018-03-29T06:08:31.356Z,24.10
2018-03-29T06:18:47.720Z,24.20
2018-03-29T06:29:00.501Z,24.30
2018-03-29T06:39:14.946Z,24.50
2018-03-29T06:49:25.856Z,24.40
2018-03-29T06:59:35.969Z,24.50
2018-03-29T07:09:51.063Z,24.50
2018-03-29T07:20:07.747Z,24.50
2018-03-29T07:30:17.768Z,24.50
2018-03-29T07:40:28.801Z,24.60
2018-03-29T07:50:50.046Z,24.60
2018-03-29T08:01:00.113Z,24.70
2018-03-29T08:11:14.051Z,24.80
2018-03-29T08:21:27.409Z,24.70
2018-03-29T08:41:55.485Z,24.80
2018-03-29T08:52:10.519Z,24.70
2018-03-29T09:02:25.375Z,24.70
2018-03-29T09:12:35.183Z,24.80
2018-03-29T09:22:46.997Z,24.70
2018-03-29T09:33:02.438Z,24.60
2018-03-29T09:43:19.145Z,24.60
2018-03-29T09:53:45.885Z,24.50
2018-03-29T10:25:14.161Z,24.30
2018-03-29T10:35:27.949Z,24.30
2018-03-29T10:45:37.205Z,24.30
2018-03-29T10:55:47.566Z,24.20
2018-03-29T11:05:58.681Z,24.00
2018-03-29T11:16:07.618Z,23.90
2018-03-29T11:26:21.726Z,23.90
2018-03-29T11:36:36.452Z,23.90
2018-03-29T11:46:53.451Z,23.90
2018-03-29T11:57:04.621Z,23.90
2018-03-29T12:07:16.848Z,23.90
2018-03-29T12:17:29.781Z,23.80
2018-03-29T12:27:40.283Z,23.80
2018-03-29T12:37:52.310Z,23.80
2018-03-29T12:48:01.623Z,23.80
2018-03-29T13:08:46.358Z,23.80
2018-03-29T13:18:57.579Z,23.80
2018-03-29T13:50:52.160Z,23.70
2018-03-29T14:01:02.192Z,23.70
2018-03-29T14:11:16.037Z,23.70
2018-03-29T14:21:32.678Z,23.70
2018-03-29T14:31:46.138Z,23.70
2018-03-29T14:41:58.618Z,23.70
2018-03-29T15:13:35.019Z,22.00
2018-03-29T15:23:47.493Z,22.00
2018-03-29T15:44:33.541Z,22.10
2018-03-29T16:05:20.995Z,22.70
2018-03-29T16:15:35.591Z,23.00
2018-03-29T16:25:47.834Z,23.00
2018-03-29T16:35:58.419Z,23.00
2018-03-29T16:46:12.657Z,23.00
2018-03-29T19:04:11.904Z,22.90
2018-03-29T19:14:34.067Z,22.80
2018-03-29T19:24:45.111Z,22.80
2018-03-29T20:39:15.299Z,22.70
2018-03-29T20:49:24.795Z,22.70
